createdAt,value
2019-04-06T00:01:12.098Z,28.05
2019-04-06T00:02:20.331Z,31.93
2019-04-06T00:03:24.535Z,30.57
2019-04-06T00:04:28.777Z,31.05
2019-04-06T00:05:33.022Z,30.92
2019-04-06T00:06:37.212Z,29.48
2019-04-06T00:07:41.454Z,31.68
2019-04-06T00:08:45.726Z,33.75
2019-04-06T00:09:49.903Z,29.85
2019-04-06T00:10:55.227Z,30.92
2019-04-06T00:12:01.123Z,30.97
2019-04-06T00:13:06.950Z,30.88
2019-04-06T00:14:11.981Z,32.60
2019-04-06T00:15:16.149Z,32.80
2019-04-06T00:16:20.326Z,35.67
2019-04-06T00:17:24.641Z,34.08
2019-04-06T00:18:28.820Z,32.85
2019-04-06T00:19:33.122Z,31.55
2019-04-06T00:20:37.296Z,34.50
2019-04-06T00:21:41.587Z,33.08
2019-04-06T00:22:45.731Z,30.43
2019-04-06T00:23:49.978Z,43.55
2019-04-06T00:24:55.261Z,33.20
2019-04-06T00:25:59.433Z,28.83
2019-04-06T00:27:04.348Z,31.96
2019-04-06T00:28:08.474Z,35.85
2019-04-06T00:29:12.906Z,35.63
2019-04-06T00:30:18.353Z,33.73
2019-04-06T00:31:26.908Z,35.43
2019-04-06T00:32:32.721Z,35.35
2019-04-06T00:33:37.033Z,36.58
2019-04-06T00:34:41.205Z,28.95
2019-04-06T00:35:46.266Z,35.68
2019-04-06T00:36:50.441Z,37.25
2019-04-06T00:37:54.614Z,40.33
2019-04-06T00:38:58.790Z,31.25
2019-04-06T00:40:02.972Z,29.60
2019-04-06T00:41:07.199Z,25.17
2019-04-06T00:42:11.457Z,24.18
2019-04-06T00:43:15.803Z,26.60
2019-04-06T00:44:20.031Z,31.50
2019-04-06T00:45:24.277Z,31.27
2019-04-06T00:46:29.451Z,35.15
2019-04-06T00:47:36.654Z,29.15
2019-04-06T00:48:40.840Z,28.55
2019-04-06T00:49:45.357Z,39.85
2019-04-06T00:50:49.531Z,36.13
2019-04-06T00:51:53.930Z,32.13
2019-04-06T00:52:59.078Z,33.30
2019-04-06T00:54:03.257Z,29.77
2019-04-06T00:55:07.430Z,26.70
2019-04-06T00:56:12.583Z,25.70
2019-04-06T00:57:16.807Z,28.00
2019-04-06T00:58:20.981Z,24.30
2019-04-06T00:59:25.233Z,35.98
2019-04-06T01:00:29.403Z,32.67
2019-04-06T01:01:33.578Z,27.35
2019-04-06T01:02:37.790Z,25.35
2019-04-06T01:03:41.972Z,23.70
2019-04-06T01:04:46.147Z,28.62
2019-04-06T01:05:50.326Z,28.60
2019-04-06T01:06:54.673Z,26.97
2019-04-06T01:07:58.881Z,39.10
2019-04-06T01:09:03.496Z,34.27
2019-04-06T01:10:08.475Z,54.40
2019-04-06T01:11:12.629Z,25.97
2019-04-06T01:12:16.861Z,31.27
2019-04-06T01:13:21.137Z,39.07
2019-04-06T01:14:25.290Z,31.90
2019-04-06T01:15:29.560Z,26.10
2019-04-06T01:16:36.436Z,28.45
2019-04-06T01:17:40.610Z,24.45
2019-04-06T01:18:44.876Z,27.20
2019-04-06T01:19:49.044Z,26.20
2019-04-06T01:20:53.368Z,22.00
2019-04-06T01:21:57.470Z,30.02
2019-04-06T01:23:01.740Z,25.77
2019-04-06T01:24:05.954Z,23.02
2019-04-06T01:25:10.204Z,23.77
2019-04-06T01:26:14.378Z,23.83
2019-04-06T01:27:18.666Z,22.10
2019-04-06T01:28:22.842Z,20.70
2019-04-06T01:29:27.013Z,19.75
2019-04-06T01:30:31.187Z,21.27
2019-04-06T01:31:35.369Z,22.13
2019-04-06T01:32:39.585Z,23.42
2019-04-06T01:33:43.766Z,22.37
2019-04-06T01:34:48.118Z,21.62
2019-04-06T01:35:52.361Z,21.62
2019-04-06T01:36:56.608Z,24.95
2019-04-06T01:38:00.822Z,20.80
2019-04-06T01:39:05.766Z,20.92
2019-04-06T01:40:09.960Z,21.63
2019-04-06T01:41:14.132Z,21.33
2019-04-06T01:42:18.633Z,21.13
2019-04-06T01:43:22.848Z,21.70
2019-04-06T01:44:27.035Z,19.32
2019-04-06T01:45:32.195Z,21.10
2019-04-06T01:46:36.433Z,21.20
2019-04-06T01:47:40.658Z,24.15
2019-04-06T01:48:44.900Z,25.62
2019-04-06T01:49:49.097Z,23.50
2019-04-06T01:50:53.340Z,22.73
2019-04-06T01:51:57.526Z,27.13
2019-04-06T01:53:01.702Z,25.50
2019-04-06T01:54:06.437Z,24.07
2019-04-06T01:55:10.669Z,27.27
2019-04-06T01:56:18.893Z,27.67
2019-04-06T01:57:20.779Z,29.97
2019-04-06T01:58:24.950Z,40.03
2019-04-06T01:59:29.170Z,36.10
2019-04-06T02:00:33.346Z,34.50
2019-04-06T02:01:51.099Z,39.03
2019-04-06T02:02:56.816Z,46.20
2019-04-06T02:04:00.997Z,33.65
2019-04-06T02:05:06.659Z,33.28
2019-04-06T02:06:10.970Z,59.27
2019-04-06T02:07:15.458Z,40.53
2019-04-06T02:08:19.634Z,35.97
2019-04-06T02:09:23.908Z,41.15
2019-04-06T02:10:28.790Z,47.78
2019-04-06T02:11:33.072Z,42.27
2019-04-06T02:12:37.294Z,34.88
2019-04-06T02:13:41.422Z,39.13
2019-04-06T02:14:45.737Z,73.05
2019-04-06T02:15:49.918Z,39.83
2019-04-06T02:16:54.147Z,52.23
2019-04-06T02:17:58.344Z,31.25
2019-04-06T02:19:02.500Z,31.93
2019-04-06T02:20:07.045Z,81.63
2019-04-06T02:21:11.221Z,41.60
2019-04-06T02:22:15.434Z,46.70
2019-04-06T02:23:19.631Z,79.67
2019-04-06T02:24:23.814Z,36.98
2019-04-06T02:25:27.990Z,78.87
2019-04-06T02:26:32.244Z,31.48
2019-04-06T02:27:36.452Z,56.88
2019-04-06T02:28:40.747Z,43.73
2019-04-06T02:29:45.297Z,34.48
2019-04-06T02:31:06.516Z,33.45
2019-04-06T02:32:18.616Z,47.50
2019-04-06T02:33:42.955Z,49.50
2019-04-06T02:34:48.770Z,55.60
2019-04-06T02:35:54.588Z,40.88
2019-04-06T02:37:06.274Z,53.52
2019-04-06T02:38:12.133Z,39.07
2019-04-06T02:39:20.809Z,38.58
2019-04-06T02:40:26.798Z,67.55
2019-04-06T02:41:47.759Z,35.33
2019-04-06T02:42:53.978Z,46.35
2019-04-06T02:43:58.157Z,43.05
2019-04-06T02:45:02.578Z,68.57
2019-04-06T02:46:06.830Z,27.07
2019-04-06T02:47:11.006Z,39.00
2019-04-06T02:48:15.189Z,44.70
2019-04-06T02:49:19.375Z,30.20
2019-04-06T02:50:23.637Z,43.75
2019-04-06T02:51:27.839Z,44.88
2019-04-06T02:52:32.027Z,43.50
2019-04-06T02:53:36.317Z,35.88
2019-04-06T02:54:40.508Z,38.25
2019-04-06T02:55:44.955Z,38.38
2019-04-06T02:56:49.154Z,40.53
2019-04-06T02:57:55.464Z,46.58
2019-04-06T02:58:59.842Z,30.32
2019-04-06T03:00:07.327Z,41.20
2019-04-06T03:01:11.513Z,39.13
2019-04-06T03:02:15.677Z,48.33
2019-04-06T03:03:19.861Z,40.80
2019-04-06T03:04:24.166Z,46.10
2019-04-06T03:05:28.368Z,32.35
2019-04-06T03:06:32.626Z,41.73
2019-04-06T03:07:36.812Z,41.30
2019-04-06T03:08:41.054Z,37.08
2019-04-06T03:09:45.271Z,43.00
2019-04-06T03:10:49.460Z,66.87
2019-04-06T03:11:53.996Z,43.38
2019-04-06T03:12:58.536Z,50.60
2019-04-06T03:14:03.154Z,47.75
2019-04-06T03:15:07.366Z,39.48
2019-04-06T03:16:11.751Z,48.77
2019-04-06T03:17:15.868Z,57.60
2019-04-06T03:18:20.043Z,37.17
2019-04-06T03:19:24.428Z,49.85
2019-04-06T03:20:28.672Z,31.87
2019-04-06T03:21:33.907Z,31.42
2019-04-06T03:22:38.079Z,34.73
2019-04-06T03:23:50.597Z,43.05
2019-04-06T03:24:48.162Z,36.35
2019-04-06T03:25:52.336Z,32.17
2019-04-06T03:27:01.920Z,30.92
2019-04-06T03:28:02.474Z,38.38
2019-04-06T03:29:07.109Z,30.05
2019-04-06T03:30:11.767Z,30.00
2019-04-06T03:31:15.957Z,62.07
2019-04-06T03:32:20.586Z,33.55
2019-04-06T03:33:24.776Z,46.02
2019-04-06T03:34:29.263Z,31.27
2019-04-06T03:35:33.477Z,35.85
2019-04-06T03:36:37.662Z,29.75
2019-04-06T03:37:47.699Z,32.63
2019-04-06T03:38:51.942Z,37.40
2019-04-06T03:39:56.121Z,41.60
2019-04-06T03:41:00.320Z,38.00
2019-04-06T03:42:05.002Z,37.54
2019-04-06T03:43:09.251Z,56.98
2019-04-06T03:44:13.420Z,37.77
2019-04-06T03:45:17.677Z,35.37
2019-04-06T03:46:21.846Z,40.37
2019-04-06T03:47:26.134Z,31.55
2019-04-06T03:48:30.304Z,31.37
2019-04-06T03:49:34.526Z,39.50
2019-04-06T03:50:40.016Z,47.27
2019-04-06T03:51:44.281Z,39.55
2019-04-06T03:52:48.525Z,38.45
2019-04-06T03:53:52.667Z,36.68
2019-04-06T03:54:56.842Z,41.88
2019-04-06T03:56:04.098Z,43.45
2019-04-06T03:57:15.844Z,37.58
2019-04-06T03:58:14.264Z,32.77
2019-04-06T03:59:18.433Z,51.43
2019-04-06T04:00:22.694Z,36.70
2019-04-06T04:01:27.207Z,34.53
2019-04-06T04:02:32.463Z,32.93
2019-04-06T04:03:36.989Z,47.13
2019-04-06T04:04:42.252Z,68.67
2019-04-06T04:05:48.175Z,47.70
2019-04-06T04:06:52.315Z,37.48
2019-04-06T04:07:56.506Z,39.27
2019-04-06T04:09:00.812Z,38.05
2019-04-06T04:10:07.099Z,33.05
2019-04-06T04:11:11.754Z,34.70
2019-04-06T04:12:15.943Z,32.98
2019-04-06T04:13:20.134Z,27.93
2019-04-06T04:14:24.411Z,44.13
2019-04-06T04:15:28.587Z,40.30
2019-04-06T04:16:34.406Z,28.60
2019-04-06T04:17:38.816Z,39.50
2019-04-06T04:18:42.998Z,36.98
2019-04-06T04:19:47.458Z,34.50
2019-04-06T04:20:51.997Z,42.65
2019-04-06T04:21:57.252Z,30.88
2019-04-06T04:23:01.491Z,42.62
2019-04-06T04:24:05.670Z,46.73
2019-04-06T04:25:09.925Z,43.13
2019-04-06T04:26:14.443Z,28.63
2019-04-06T04:27:28.358Z,31.10
2019-04-06T04:28:24.451Z,45.88
2019-04-06T04:29:28.632Z,32.63
2019-04-06T04:30:34.633Z,35.28
2019-04-06T04:31:40.364Z,42.75
2019-04-06T04:32:44.652Z,30.48
2019-04-06T04:33:48.788Z,35.93
2019-04-06T04:34:54.769Z,35.80
2019-04-06T04:35:58.992Z,34.33
2019-04-06T04:37:03.327Z,40.00
2019-04-06T04:38:07.512Z,34.65
2019-04-06T04:39:11.694Z,37.67
2019-04-06T04:40:15.935Z,36.47
2019-04-06T04:41:20.101Z,33.80
2019-04-06T04:42:24.368Z,36.42
2019-04-06T04:43:29.782Z,29.27
2019-04-06T04:44:34.198Z,36.23
2019-04-06T04:45:38.530Z,22.90
2019-04-06T04:46:43.071Z,29.18
2019-04-06T04:47:49.998Z,23.62
2019-04-06T04:48:53.406Z,25.92
2019-04-06T04:49:57.628Z,32.15
2019-04-06T04:51:01.877Z,23.92
2019-04-06T04:52:06.129Z,25.88
2019-04-06T04:53:10.439Z,39.37
2019-04-06T04:54:14.671Z,36.03
2019-04-06T04:55:19.090Z,27.27
2019-04-06T04:56:23.327Z,24.50
2019-04-06T04:57:39.247Z,19.00
2019-04-06T04:58:33.450Z,19.15
2019-04-06T04:59:37.634Z,17.67
2019-04-06T05:00:41.839Z,17.65
2019-04-06T05:01:46.140Z,15.03
2019-04-06T05:02:50.331Z,16.17
2019-04-06T05:03:54.563Z,14.85
2019-04-06T05:04:59.134Z,22.27
2019-04-06T05:06:03.342Z,21.10
2019-04-06T05:07:07.540Z,31.05
2019-04-06T05:08:11.717Z,16.87
2019-04-06T05:09:16.046Z,15.80
2019-04-06T05:10:20.188Z,18.27
2019-04-06T05:11:24.841Z,16.00
2019-04-06T05:12:29.151Z,14.98
2019-04-06T05:13:33.446Z,16.40
2019-04-06T05:14:56.340Z,15.00
2019-04-06T05:16:09.081Z,15.40
2019-04-06T05:17:13.235Z,15.73
2019-04-06T05:18:17.708Z,11.07
2019-04-06T05:19:21.879Z,14.20
2019-04-06T05:20:26.116Z,16.80
2019-04-06T05:21:30.361Z,15.50
2019-04-06T05:22:34.553Z,17.55
2019-04-06T05:23:38.930Z,18.52
2019-04-06T05:24:43.158Z,18.52
2019-04-06T05:25:47.501Z,18.30
2019-04-06T05:26:51.682Z,16.23
2019-04-06T05:27:55.853Z,20.00
2019-04-06T05:29:00.188Z,30.02
2019-04-06T05:30:07.752Z,22.72
2019-04-06T05:31:11.926Z,21.03
2019-04-06T05:32:16.091Z,16.77
2019-04-06T05:33:20.442Z,18.60
2019-04-06T05:34:24.743Z,21.25
2019-04-06T05:35:28.939Z,23.45
2019-04-06T05:36:33.080Z,19.62
2019-04-06T05:37:38.025Z,18.77
2019-04-06T05:38:42.249Z,13.90
2019-04-06T05:39:46.445Z,16.85
2019-04-06T05:40:50.652Z,14.73
2019-04-06T05:41:55.197Z,15.93
2019-04-06T05:42:59.413Z,15.38
2019-04-06T05:44:04.446Z,14.74
2019-04-06T05:45:08.608Z,14.78
2019-04-06T05:46:12.866Z,20.20
2019-04-06T05:47:17.241Z,16.50
2019-04-06T05:48:21.787Z,17.67
2019-04-06T05:49:26.002Z,18.10
2019-04-06T05:50:30.170Z,15.80
2019-04-06T05:51:34.414Z,17.77
2019-04-06T05:52:38.586Z,14.45
2019-04-06T05:53:42.756Z,15.72
2019-04-06T05:54:46.990Z,17.37
2019-04-06T05:55:51.279Z,18.02
2019-04-06T05:56:55.605Z,16.20
2019-04-06T05:58:04.187Z,17.27
2019-04-06T05:59:05.980Z,18.57
2019-04-06T06:00:11.573Z,18.23
2019-04-06T06:01:15.881Z,17.10
2019-04-06T06:02:20.110Z,18.98
2019-04-06T06:03:24.267Z,17.77
2019-04-06T06:04:28.547Z,17.98
2019-04-06T06:05:32.759Z,17.35
2019-04-06T06:06:39.948Z,19.52
2019-04-06T06:07:44.357Z,19.32
2019-04-06T06:08:49.765Z,19.80
2019-04-06T06:09:53.996Z,18.70
2019-04-06T06:10:58.918Z,17.87
2019-04-06T06:12:03.110Z,20.32
2019-04-06T06:13:07.348Z,19.87
2019-04-06T06:14:11.568Z,18.47
2019-04-06T06:15:18.785Z,19.60
2019-04-06T06:16:23.098Z,20.07
2019-04-06T06:17:27.313Z,21.85
2019-04-06T06:18:31.453Z,23.25
2019-04-06T06:19:35.696Z,23.38
2019-04-06T06:20:41.487Z,25.45
2019-04-06T06:21:45.891Z,25.37
2019-04-06T06:22:50.232Z,27.35
2019-04-06T06:23:54.480Z,25.70
2019-04-06T06:24:58.809Z,24.25
2019-04-06T06:26:03.000Z,23.55
2019-04-06T06:27:07.377Z,23.57
2019-04-06T06:28:15.081Z,21.13
2019-04-06T06:29:17.883Z,19.53
2019-04-06T06:30:22.559Z,22.85
2019-04-06T06:31:26.738Z,19.50
2019-04-06T06:32:31.443Z,23.15
2019-04-06T06:33:35.854Z,18.07
2019-04-06T06:34:40.026Z,22.35
2019-04-06T06:35:44.278Z,23.27
2019-04-06T06:36:48.524Z,21.95
2019-04-06T06:37:52.902Z,23.25
2019-04-06T06:38:57.198Z,29.67
2019-04-06T06:40:03.413Z,33.78
2019-04-06T06:41:07.763Z,29.63
2019-04-06T06:42:11.941Z,24.57
2019-04-06T06:43:16.184Z,24.33
2019-04-06T06:44:20.473Z,23.60
2019-04-06T06:45:24.736Z,22.90
2019-04-06T06:46:29.033Z,23.55
2019-04-06T06:47:33.219Z,24.47
2019-04-06T06:48:37.664Z,21.02
2019-04-06T06:49:42.079Z,23.70
2019-04-06T06:50:47.407Z,24.35
2019-04-06T06:51:51.753Z,26.60
2019-04-06T06:52:55.931Z,26.77
2019-04-06T06:54:00.178Z,24.05
2019-04-06T06:55:05.794Z,25.32
2019-04-06T06:56:10.070Z,27.27
2019-04-06T06:57:14.484Z,26.20
2019-04-06T06:58:25.054Z,25.07
2019-04-06T06:59:24.590Z,25.20
2019-04-06T07:00:29.238Z,24.72
2019-04-06T07:01:33.478Z,27.02
2019-04-06T07:02:39.366Z,23.52
2019-04-06T07:03:43.703Z,24.23
2019-04-06T07:04:47.875Z,24.85
2019-04-06T07:05:52.391Z,27.75
2019-04-06T07:06:56.590Z,26.77
2019-04-06T07:08:00.852Z,27.62
2019-04-06T07:09:06.900Z,27.32
2019-04-06T07:10:11.106Z,29.57
2019-04-06T07:11:15.264Z,28.97
2019-04-06T07:12:19.526Z,30.12
2019-04-06T07:13:23.714Z,29.98
2019-04-06T07:14:27.899Z,34.53
2019-04-06T07:15:32.082Z,29.18
2019-04-06T07:16:36.259Z,29.18
2019-04-06T07:17:40.457Z,32.40
2019-04-06T07:18:44.714Z,29.85
2019-04-06T07:19:48.973Z,30.45
2019-04-06T07:20:53.260Z,27.42
2019-04-06T07:21:57.441Z,30.95
2019-04-06T07:23:01.652Z,31.07
2019-04-06T07:24:05.995Z,28.73
2019-04-06T07:25:10.180Z,29.60
2019-04-06T07:26:14.341Z,26.67
2019-04-06T07:27:19.923Z,29.53
2019-04-06T07:28:25.471Z,31.85
2019-04-06T07:29:31.257Z,31.12
2019-04-06T07:30:35.517Z,32.58
2019-04-06T07:31:39.765Z,27.85
2019-04-06T07:32:44.116Z,29.10
2019-04-06T07:33:49.477Z,32.30
2019-04-06T07:34:53.660Z,35.58
2019-04-06T07:35:58.178Z,34.00
2019-04-06T07:37:02.358Z,31.37
2019-04-06T07:38:06.675Z,32.08
2019-04-06T07:39:11.036Z,29.47
2019-04-06T07:40:15.834Z,33.67
2019-04-06T07:41:20.638Z,32.57
2019-04-06T07:42:24.751Z,36.40
2019-04-06T07:43:30.681Z,36.25
2019-04-06T07:44:34.856Z,29.07
2019-04-06T07:45:39.106Z,34.95
2019-04-06T07:46:43.350Z,30.02
2019-04-06T07:47:47.532Z,32.30
2019-04-06T07:48:53.370Z,33.70
2019-04-06T07:49:58.966Z,32.48
2019-04-06T07:51:04.221Z,32.74
2019-04-06T07:52:08.536Z,32.65
2019-04-06T07:53:14.416Z,30.40
2019-04-06T07:54:21.885Z,34.93
2019-04-06T07:55:26.262Z,36.28
2019-04-06T07:56:30.517Z,31.07
2019-04-06T07:57:34.958Z,33.42
2019-04-06T07:58:47.815Z,34.30
2019-04-06T07:59:45.229Z,33.60
2019-04-06T08:00:49.747Z,34.98
2019-04-06T08:01:54.012Z,30.45
2019-04-06T08:02:58.458Z,34.83
2019-04-06T08:04:03.910Z,31.77
2019-04-06T08:05:08.203Z,36.00
2019-04-06T08:06:12.633Z,36.63
2019-04-06T08:07:16.822Z,38.00
2019-04-06T08:08:21.332Z,35.70
2019-04-06T08:09:25.507Z,35.20
2019-04-06T08:10:29.784Z,35.58
2019-04-06T08:11:34.507Z,34.53
2019-04-06T08:12:38.662Z,35.20
2019-04-06T08:13:42.916Z,35.15
2019-04-06T08:14:47.250Z,37.70
2019-04-06T08:15:53.235Z,35.65
2019-04-06T08:16:57.816Z,34.80
2019-04-06T08:18:02.069Z,38.08
2019-04-06T08:19:06.315Z,35.23
2019-04-06T08:20:10.495Z,37.13
2019-04-06T08:21:14.970Z,37.60
2019-04-06T08:22:21.271Z,37.17
2019-04-06T08:23:25.438Z,39.70
2019-04-06T08:24:29.614Z,37.00
2019-04-06T08:25:34.044Z,36.30
2019-04-06T08:26:38.211Z,36.13
2019-04-06T08:27:42.443Z,38.67
2019-04-06T08:28:46.672Z,37.55
2019-04-06T08:29:50.844Z,38.50
2019-04-06T08:30:55.021Z,39.05
2019-04-06T08:31:59.268Z,38.98
2019-04-06T08:33:04.584Z,40.28
2019-04-06T08:34:08.751Z,39.88
2019-04-06T08:35:23.980Z,37.60
2019-04-06T08:36:19.069Z,36.33
2019-04-06T08:37:23.404Z,42.00
2019-04-06T08:38:27.678Z,40.45
2019-04-06T08:39:32.973Z,37.63
2019-04-06T08:40:37.222Z,42.20
2019-04-06T08:41:41.558Z,42.05
2019-04-06T08:42:45.739Z,40.90
2019-04-06T08:43:50.021Z,43.98
2019-04-06T08:44:54.250Z,39.70
2019-04-06T08:45:58.406Z,40.95
2019-04-06T08:47:02.723Z,44.00
2019-04-06T08:48:06.994Z,37.95
2019-04-06T08:49:11.202Z,38.73
2019-04-06T08:50:15.478Z,39.63
2019-04-06T08:51:20.005Z,41.50
2019-04-06T08:52:24.203Z,41.25
2019-04-06T08:53:28.704Z,40.30
2019-04-06T08:54:33.088Z,40.80
2019-04-06T08:55:37.300Z,40.48
2019-04-06T08:56:41.547Z,40.83
2019-04-06T08:57:45.862Z,36.35
2019-04-06T08:58:50.251Z,40.55
2019-04-06T08:59:54.734Z,39.38
2019-04-06T09:00:59.059Z,37.50
2019-04-06T09:02:04.581Z,43.70
2019-04-06T09:03:08.789Z,38.67
2019-04-06T09:04:12.971Z,39.40
2019-04-06T09:05:17.198Z,38.03
2019-04-06T09:06:21.515Z,38.53
2019-04-06T09:07:25.899Z,37.90
2019-04-06T09:08:30.134Z,40.50
2019-04-06T09:09:34.380Z,40.98
2019-04-06T09:10:38.553Z,41.65
2019-04-06T09:11:42.801Z,39.85
2019-04-06T09:12:47.051Z,39.60
2019-04-06T09:13:51.410Z,38.35
2019-04-06T09:14:55.659Z,45.38
2019-04-06T09:15:59.842Z,38.88
2019-04-06T09:17:05.059Z,40.08
2019-04-06T09:18:09.286Z,39.08
2019-04-06T09:19:14.256Z,41.50
2019-04-06T09:20:20.296Z,38.80
2019-04-06T09:21:24.625Z,39.15
2019-04-06T09:22:28.798Z,38.23
2019-04-06T09:23:34.794Z,38.67
2019-04-06T09:24:39.239Z,40.12
2019-04-06T09:25:43.620Z,43.48
2019-04-06T09:26:48.573Z,40.40
2019-04-06T09:27:53.360Z,36.08
2019-04-06T09:28:59.540Z,39.92
2019-04-06T09:30:05.225Z,39.78
2019-04-06T09:31:09.723Z,39.13
2019-04-06T09:32:13.879Z,36.07
2019-04-06T09:33:18.583Z,38.27
2019-04-06T09:34:22.786Z,41.60
2019-04-06T09:35:26.989Z,39.05
2019-04-06T09:36:31.301Z,41.92
2019-04-06T09:37:35.630Z,38.23
2019-04-06T09:38:41.000Z,40.28
2019-04-06T09:39:45.202Z,38.92
2019-04-06T09:40:50.019Z,38.65
2019-04-06T09:41:56.436Z,38.33
2019-04-06T09:43:01.089Z,42.60
2019-04-06T09:44:07.004Z,35.70
2019-04-06T09:45:12.879Z,41.73
2019-04-06T09:46:25.035Z,43.13
2019-04-06T09:47:33.760Z,40.15
2019-04-06T09:48:48.408Z,36.28
2019-04-06T09:50:00.347Z,37.13
2019-04-06T09:51:22.298Z,42.55
2019-04-06T09:52:34.020Z,41.63
2019-04-06T09:54:05.171Z,36.85
2019-04-06T09:55:09.471Z,42.80
2019-04-06T09:56:15.234Z,41.30
2019-04-06T09:57:21.050Z,41.80
2019-04-06T09:58:32.319Z,38.65
2019-04-06T09:59:38.251Z,40.67
2019-04-06T10:00:49.834Z,39.73
2019-04-06T10:02:04.856Z,41.08
2019-04-06T10:03:16.660Z,42.43
2019-04-06T10:04:31.114Z,38.75
2019-04-06T10:05:37.282Z,40.05
2019-04-06T10:06:59.164Z,41.25
2019-04-06T10:08:21.277Z,42.17
2019-04-06T10:09:32.945Z,39.10
2019-04-06T10:10:39.891Z,39.13
2019-04-06T10:11:48.346Z,42.43
2019-04-06T10:13:09.105Z,39.45
2019-04-06T10:14:20.771Z,43.47
2019-04-06T10:15:34.174Z,40.28
2019-04-06T10:16:45.792Z,40.65
2019-04-06T10:18:09.565Z,41.45
2019-04-06T10:19:31.509Z,40.00
2019-04-06T10:20:53.149Z,39.30
2019-04-06T10:22:02.363Z,37.42
2019-04-06T10:23:19.928Z,35.75
2019-04-06T10:24:31.725Z,37.60
2019-04-06T10:25:40.617Z,38.00
2019-04-06T10:27:02.344Z,35.83
2019-04-06T10:28:17.640Z,39.15
2019-04-06T10:29:47.959Z,34.90
2019-04-06T10:31:04.159Z,40.63
2019-04-06T10:32:25.381Z,40.63
2019-04-06T10:33:31.197Z,38.05
2019-04-06T10:34:43.074Z,37.73
2019-04-06T10:36:07.511Z,37.42
2019-04-06T10:37:25.668Z,39.17
2019-04-06T10:38:40.572Z,38.67
2019-04-06T10:39:49.141Z,39.35
2019-04-06T10:41:10.259Z,39.33
2019-04-06T10:42:32.641Z,42.63
2019-04-06T10:43:38.515Z,39.60
2019-04-06T10:45:00.498Z,39.85
2019-04-06T10:46:21.394Z,36.88
2019-04-06T10:47:32.851Z,34.95
2019-04-06T10:48:55.137Z,36.65
2019-04-06T10:50:01.488Z,36.70
2019-04-06T10:51:10.340Z,36.03
2019-04-06T10:52:32.457Z,37.83
2019-04-06T10:53:54.245Z,34.65
2019-04-06T10:55:00.062Z,35.40
2019-04-06T10:56:25.285Z,36.72
2019-04-06T10:57:31.394Z,34.75
2019-04-06T10:58:53.716Z,39.25
2019-04-06T11:00:03.449Z,33.10
2019-04-06T11:01:15.383Z,37.38
2019-04-06T11:02:37.457Z,37.00
2019-04-06T11:03:43.302Z,36.20
2019-04-06T11:04:52.616Z,37.75
2019-04-06T11:06:04.666Z,36.43
2019-04-06T11:07:27.006Z,36.33
2019-04-06T11:08:38.774Z,34.55
2019-04-06T11:09:44.664Z,37.05
2019-04-06T11:10:51.109Z,35.43
2019-04-06T11:12:09.197Z,32.38
2019-04-06T11:13:20.989Z,34.23
2019-04-06T11:14:26.877Z,35.10
2019-04-06T11:15:32.962Z,34.03
2019-04-06T11:16:41.851Z,37.55
2019-04-06T11:17:47.580Z,36.68
2019-04-06T11:18:53.396Z,37.98
2019-04-06T11:19:59.421Z,36.60
2019-04-06T11:21:22.521Z,34.80
2019-04-06T11:22:28.516Z,38.67
2019-04-06T11:23:46.401Z,37.38
2019-04-06T11:24:52.721Z,36.40
2019-04-06T11:26:12.973Z,38.13
2019-04-06T11:27:18.837Z,36.63
2019-04-06T11:28:27.444Z,40.30
2019-04-06T11:29:36.091Z,38.45
2019-04-06T11:30:59.017Z,38.05
2019-04-06T11:32:05.858Z,37.66
2019-04-06T11:33:17.482Z,39.65
2019-04-06T11:34:23.441Z,37.77
2019-04-06T11:35:41.190Z,36.77
2019-04-06T11:36:47.036Z,39.75
2019-04-06T11:38:09.002Z,39.18
2019-04-06T11:39:17.896Z,39.57
2019-04-06T11:40:39.919Z,40.40
2019-04-06T11:41:45.868Z,40.92
2019-04-06T11:42:57.418Z,36.33
2019-04-06T11:44:03.311Z,39.88
2019-04-06T11:45:15.265Z,36.30
2019-04-06T11:46:30.257Z,37.80
2019-04-06T11:47:36.419Z,38.55
2019-04-06T11:48:55.420Z,39.53
2019-04-06T11:50:01.335Z,40.38
2019-04-06T11:51:24.843Z,38.28
2019-04-06T11:52:46.781Z,39.88
2019-04-06T11:54:09.177Z,35.92
2019-04-06T11:55:31.278Z,40.23
2019-04-06T11:56:53.464Z,38.35
2019-04-06T11:58:17.577Z,38.17
2019-04-06T11:59:39.237Z,38.77
2019-04-06T12:01:01.594Z,39.80
2019-04-06T12:02:11.430Z,41.33
2019-04-06T12:03:19.850Z,38.53
2019-04-06T12:04:31.689Z,40.17
2019-04-06T12:05:52.832Z,37.78
2019-04-06T12:07:10.619Z,41.88
2019-04-06T12:08:19.458Z,41.77
2019-04-06T12:09:28.247Z,39.57
2019-04-06T12:10:52.531Z,40.25
2019-04-06T12:12:01.288Z,38.85
2019-04-06T12:13:13.129Z,40.58
2019-04-06T12:14:31.709Z,39.60
2019-04-06T12:15:55.487Z,40.90
2019-04-06T12:17:17.583Z,42.75
2019-04-06T12:18:26.487Z,43.57
2019-04-06T12:19:38.305Z,42.03
2019-04-06T12:21:00.728Z,43.00
2019-04-06T12:22:12.050Z,40.83
2019-04-06T12:23:34.776Z,36.60
2019-04-06T12:24:46.506Z,40.20
2019-04-06T12:26:01.604Z,39.30
2019-04-06T12:27:13.534Z,40.23
2019-04-06T12:28:22.451Z,39.83
2019-04-06T12:29:44.775Z,40.20
2019-04-06T12:30:53.761Z,40.15
2019-04-06T12:32:08.406Z,41.55
2019-04-06T12:33:14.344Z,41.13
2019-04-06T12:34:38.322Z,42.27
2019-04-06T12:35:53.238Z,39.27
2019-04-06T12:37:14.889Z,41.63
2019-04-06T12:38:20.775Z,41.80
2019-04-06T12:39:32.659Z,41.90
2019-04-06T12:40:54.875Z,40.67
2019-04-06T12:42:01.811Z,40.05
2019-04-06T12:43:25.869Z,41.83
2019-04-06T12:44:48.604Z,39.38
2019-04-06T12:45:57.386Z,40.85
2019-04-06T12:47:06.588Z,40.48
2019-04-06T12:48:21.551Z,39.50
2019-04-06T12:49:32.532Z,41.51
2019-04-06T12:50:55.116Z,40.40
2019-04-06T12:52:01.032Z,40.85
2019-04-06T12:53:07.073Z,43.23
2019-04-06T12:54:12.941Z,40.55
2019-04-06T12:55:21.483Z,37.80
2019-04-06T12:56:30.091Z,38.73
2019-04-06T12:57:38.594Z,39.60
2019-04-06T12:58:53.376Z,42.05
2019-04-06T13:00:05.435Z,39.08
2019-04-06T13:01:14.221Z,37.53
2019-04-06T13:02:23.162Z,42.48
2019-04-06T13:03:31.648Z,38.77
2019-04-06T13:04:46.853Z,40.58
2019-04-06T13:05:55.554Z,39.92
2019-04-06T13:07:10.696Z,45.58
2019-04-06T13:08:29.325Z,42.10
2019-04-06T13:09:49.984Z,41.58
2019-04-06T13:11:08.020Z,37.47
2019-04-06T13:12:13.917Z,43.45
2019-04-06T13:13:38.153Z,40.63
2019-04-06T13:14:47.667Z,39.65
2019-04-06T13:16:02.747Z,40.60
2019-04-06T13:17:14.466Z,39.67
2019-04-06T13:18:25.784Z,41.43
2019-04-06T13:19:31.917Z,41.65
2019-04-06T13:20:38.111Z,42.08
2019-04-06T13:22:00.164Z,41.83
2019-04-06T13:23:09.451Z,40.52
2019-04-06T13:24:31.475Z,40.87
2019-04-06T13:25:37.944Z,39.08
2019-04-06T13:26:46.429Z,40.38
2019-04-06T13:27:52.263Z,38.88
2019-04-06T13:29:15.069Z,41.40
2019-04-06T13:30:23.382Z,43.67
2019-04-06T13:31:45.401Z,42.88
2019-04-06T13:32:51.620Z,40.65
2019-04-06T13:33:57.434Z,38.00
2019-04-06T13:35:03.315Z,41.63
2019-04-06T13:36:18.238Z,40.80
2019-04-06T13:37:41.249Z,39.50
2019-04-06T13:39:03.046Z,42.40
2019-04-06T13:40:12.930Z,38.63
2019-04-06T13:41:35.057Z,40.77
2019-04-06T13:42:56.788Z,40.88
2019-04-06T13:44:06.050Z,37.55
2019-04-06T13:45:27.818Z,38.50
2019-04-06T13:46:39.948Z,40.85
2019-04-06T13:47:45.940Z,41.88
2019-04-06T13:48:57.845Z,40.10
2019-04-06T13:50:15.391Z,42.15
2019-04-06T13:51:36.248Z,44.73
2019-04-06T13:52:42.332Z,40.80
2019-04-06T13:53:48.249Z,42.70
2019-04-06T13:54:54.089Z,42.03
2019-04-06T13:56:02.927Z,41.83
2019-04-06T13:57:08.694Z,41.75
2019-04-06T13:58:20.271Z,39.17
2019-04-06T13:59:42.345Z,39.65
2019-04-06T14:00:51.077Z,39.23
2019-04-06T14:01:57.025Z,39.45
2019-04-06T14:03:12.106Z,43.48
2019-04-06T14:04:33.025Z,40.40
2019-04-06T14:05:39.922Z,41.37
2019-04-06T14:06:57.849Z,41.53
2019-04-06T14:08:21.064Z,44.38
2019-04-06T14:09:42.257Z,43.02
2019-04-06T14:11:00.114Z,41.53
2019-04-06T14:12:12.074Z,42.22
2019-04-06T14:13:32.779Z,40.13
2019-04-06T14:14:38.644Z,42.10
2019-04-06T14:16:00.459Z,40.60
2019-04-06T14:17:06.548Z,43.55
2019-04-06T14:18:18.241Z,39.77
2019-04-06T14:19:33.242Z,40.40
2019-04-06T14:20:57.306Z,37.93
2019-04-06T14:22:03.186Z,39.38
2019-04-06T14:23:11.642Z,39.98
2019-04-06T14:24:17.649Z,38.10
2019-04-06T14:25:23.474Z,41.07
2019-04-06T14:26:32.054Z,39.87
2019-04-06T14:27:40.349Z,38.53
2019-04-06T14:29:04.316Z,38.50